createdAt,value
2022-10-04T00:00:50.280Z,101914.25
2022-10-04T00:05:56.447Z,101909.09
2022-10-04T00:11:12.561Z,101911.81
2022-10-04T00:16:22.893Z,101913.59
2022-10-04T00:21:24.269Z,101910.13
2022-10-04T00:26:25.544Z,101905.81
2022-10-04T00:31:28.961Z,101911.06
2022-10-04T00:36:44.249Z,101883.34
2022-10-04T00:41:48.270Z,101902.41
2022-10-04T00:46:51.633Z,101906.69
2022-10-04T00:52:01.566Z,101905.88
2022-10-04T00:57:07.500Z,101890.16
2022-10-04T01:02:21.621Z,101878.88
2022-10-04T01:07:29.064Z,101846.69
2022-10-04T01:12:44.190Z,101879.78
2022-10-04T01:18:29.607Z,101873.81
2022-10-04T01:23:36.038Z,101872.91
2022-10-04T01:28:38.442Z,101861.53
2022-10-04T01:33:41.039Z,101855.41
2022-10-04T01:38:42.464Z,101863.28
2022-10-04T01:43:45.725Z,101847.63
2022-10-04T01:48:47.311Z,101830.25
2022-10-04T01:54:02.050Z,101822.50
2022-10-04T01:59:07.291Z,101813.63
2022-10-04T02:04:31.595Z,101840.53
2022-10-04T02:09:35.018Z,101824.88
2022-10-04T02:14:42.864Z,101815.44
2022-10-04T02:19:45.068Z,101805.13
2022-10-04T02:24:49.637Z,101790.47
2022-10-04T02:29:51.129Z,101805.16
2022-10-04T02:34:54.786Z,101806.03
2022-10-04T02:40:03.874Z,101807.72
2022-10-04T02:45:16.072Z,101780.00
2022-10-04T02:50:44.181Z,101791.31
2022-10-04T02:55:46.360Z,101788.72
2022-10-04T03:00:56.828Z,101790.41
2022-10-04T03:06:01.188Z,101776.53
2022-10-04T03:11:04.644Z,101758.34
2022-10-04T03:16:06.511Z,101766.25
2022-10-04T03:21:11.860Z,101765.38
2022-10-04T03:26:32.080Z,101765.31
2022-10-04T03:31:35.051Z,101760.13
2022-10-04T03:36:36.536Z,101768.66
2022-10-04T03:41:41.987Z,101772.94
2022-10-04T03:46:45.344Z,101745.16
2022-10-04T03:51:49.529Z,101744.25
2022-10-04T03:56:52.913Z,101712.03
2022-10-04T04:02:06.599Z,101749.22
2022-10-04T04:07:23.776Z,101751.03
2022-10-04T04:12:43.775Z,101736.28
2022-10-04T04:17:52.226Z,101747.50
2022-10-04T04:23:32.718Z,101742.41
2022-10-04T04:28:42.227Z,101737.03
2022-10-04T04:33:49.293Z,101724.97
2022-10-04T04:39:09.366Z,101714.50
2022-10-04T04:44:19.313Z,101711.09
2022-10-04T04:49:20.751Z,101682.59
2022-10-04T04:54:24.850Z,101699.03
2022-10-04T04:59:27.736Z,101697.16
2022-10-04T05:04:29.654Z,101684.38
2022-10-04T05:09:36.434Z,101691.22
2022-10-04T05:14:41.650Z,101679.06
2022-10-04T05:19:43.014Z,101691.22
2022-10-04T05:24:47.644Z,101690.34
2022-10-04T05:30:06.607Z,101692.78
2022-10-04T05:35:19.481Z,101712.56
2022-10-04T05:40:32.253Z,101691.69
2022-10-04T05:45:33.691Z,101702.16
2022-10-04T05:50:41.782Z,101702.06
2022-10-04T05:56:18.619Z,101697.69
2022-10-04T06:01:41.363Z,101696.88
2022-10-04T06:06:53.931Z,101701.28
2022-10-04T06:12:14.280Z,101642.91
2022-10-04T06:17:27.762Z,101700.41
2022-10-04T06:22:30.417Z,101708.22
2022-10-04T06:27:41.642Z,101704.81
2022-10-04T06:33:05.741Z,101704.09
2022-10-04T06:38:22.178Z,101711.09
2022-10-04T06:43:41.330Z,101712.03
2022-10-04T06:49:20.120Z,101711.31
2022-10-04T06:54:33.401Z,101718.25
2022-10-04T07:00:02.788Z,101718.38
2022-10-04T07:05:30.117Z,101720.41
2022-10-04T07:10:38.851Z,101721.38
2022-10-04T07:16:01.956Z,101710.31
2022-10-04T07:21:13.589Z,101703.56
2022-10-04T07:26:19.659Z,101713.03
2022-10-04T07:31:35.254Z,101720.03
2022-10-04T07:36:50.553Z,101702.88
2022-10-04T07:42:12.398Z,101726.31
2022-10-04T07:47:27.798Z,101736.81
2022-10-04T07:52:41.518Z,101731.72
2022-10-04T07:58:14.549Z,101729.13
2022-10-04T08:03:34.844Z,101726.78
2022-10-04T08:08:59.119Z,101723.41
2022-10-04T08:14:38.199Z,101724.28
2022-10-04T08:19:51.555Z,101721.78
2022-10-04T08:25:17.340Z,101720.13
2022-10-04T08:30:18.896Z,101715.81
2022-10-04T08:35:27.864Z,101714.31
2022-10-04T08:40:54.085Z,101716.97
2022-10-04T08:46:13.734Z,101729.13
2022-10-04T08:51:33.296Z,101722.19
2022-10-04T08:56:58.295Z,101721.44
2022-10-04T09:02:18.481Z,101715.44
2022-10-04T09:07:54.750Z,101699.97
2022-10-04T09:13:22.376Z,101701.78
2022-10-04T09:18:42.495Z,101701.03
2022-10-04T09:24:09.103Z,101685.56
2022-10-04T09:29:37.384Z,101689.91
2022-10-04T09:34:57.795Z,101684.81
2022-10-04T09:40:26.780Z,101683.97
2022-10-04T09:45:48.967Z,101664.00
2022-10-04T09:51:11.409Z,101676.19
2022-10-04T09:56:30.677Z,101670.13
2022-10-04T10:02:03.247Z,101668.41
2022-10-04T10:07:15.468Z,101655.41
2022-10-04T10:13:03.488Z,101662.34
2022-10-04T10:18:27.305Z,101669.28
2022-10-04T10:23:46.067Z,101677.97
2022-10-04T10:29:18.042Z,101666.72
2022-10-04T10:34:56.830Z,101669.31
2022-10-04T10:40:35.478Z,101674.47
2022-10-04T10:46:01.179Z,101673.63
2022-10-04T10:51:40.396Z,101666.66
2022-10-04T10:56:55.273Z,101660.56
2022-10-04T11:02:10.131Z,101650.19
2022-10-04T11:07:39.950Z,101644.09
2022-10-04T11:13:07.062Z,101634.56
2022-10-04T11:18:34.935Z,101637.16
2022-10-04T11:23:57.503Z,101633.53
2022-10-04T11:29:31.432Z,101618.81
2022-10-04T11:35:12.714Z,101610.97
2022-10-04T11:40:25.210Z,101612.72
2022-10-04T11:45:48.470Z,101590.97
2022-10-04T11:51:03.059Z,101617.78
2022-10-04T11:56:34.700Z,101623.84
2022-10-04T12:01:59.914Z,101598.66
2022-10-04T12:07:42.437Z,101598.41
2022-10-04T12:12:47.252Z,101596.63
2022-10-04T12:18:17.761Z,101584.47
2022-10-04T12:23:40.898Z,101582.72
2022-10-04T12:28:51.325Z,101581.75
2022-10-04T12:34:04.857Z,101568.56
2022-10-04T12:39:06.127Z,101558.19
2022-10-04T12:44:26.957Z,101553.69
2022-10-04T12:49:38.586Z,101543.38
2022-10-04T12:54:45.251Z,101519.69
2022-10-04T13:00:12.728Z,101541.25
2022-10-04T13:05:22.363Z,101532.03
2022-10-04T13:10:57.553Z,101536.84
2022-10-04T13:21:34.977Z,101519.66
2022-10-04T13:26:59.029Z,101509.72
2022-10-04T13:32:14.172Z,101501.94
2022-10-04T13:37:45.063Z,101484.63
2022-10-04T13:43:00.782Z,101496.59
2022-10-04T13:48:40.410Z,101487.72
2022-10-04T13:54:10.736Z,101485.06
2022-10-04T13:59:49.387Z,101492.13
2022-10-04T14:05:28.201Z,101483.34
2022-10-04T14:11:06.435Z,101492.81
2022-10-04T14:16:26.249Z,101490.91
2022-10-04T14:22:02.219Z,101470.22
2022-10-04T14:27:22.394Z,101473.66
2022-10-04T14:32:42.136Z,101475.09
2022-10-04T14:38:05.573Z,101455.56
2022-10-04T14:43:17.236Z,101440.84
2022-10-04T14:48:50.953Z,101429.78
2022-10-04T14:54:06.295Z,101443.75
2022-10-04T14:59:45.220Z,101442.91
2022-10-04T15:04:51.276Z,101436.66
2022-10-04T15:10:12.368Z,101419.94
2022-10-04T15:15:41.564Z,101438.31
2022-10-04T15:20:58.764Z,101444.53
2022-10-04T15:26:18.368Z,101443.59
2022-10-04T15:31:34.822Z,101444.31
2022-10-04T15:37:01.763Z,101440.91
2022-10-04T15:42:22.596Z,101439.19
2022-10-04T15:47:49.374Z,101433.16
2022-10-04T15:53:06.697Z,101435.91
2022-10-04T15:58:30.954Z,101441.06
2022-10-04T16:03:54.488Z,101440.31
2022-10-04T16:09:10.887Z,101447.34
2022-10-04T16:14:33.238Z,101436.94
2022-10-04T16:20:06.392Z,101430.13
2022-10-04T16:25:26.095Z,101439.59
2022-10-04T16:30:39.957Z,101428.44
2022-10-04T16:36:01.907Z,101425.97
2022-10-04T16:41:14.384Z,101430.34
2022-10-04T16:46:15.751Z,101426.19
2022-10-04T16:51:17.060Z,101423.59
2022-10-04T16:56:22.998Z,101416.72
2022-10-04T17:01:55.465Z,101420.38
2022-10-04T17:07:13.066Z,101400.50
2022-10-04T17:12:32.540Z,101403.25
2022-10-04T17:17:49.232Z,101423.25
2022-10-04T17:23:28.850Z,101426.06
2022-10-04T17:28:55.280Z,101434.00
2022-10-04T17:34:36.103Z,101430.72
2022-10-04T17:39:46.585Z,101440.34
2022-10-04T17:45:03.094Z,101450.78
2022-10-04T17:50:37.418Z,101445.69
2022-10-04T17:55:59.756Z,101455.31
2022-10-04T18:01:14.322Z,101458.84
2022-10-04T18:06:41.208Z,101465.06
2022-10-04T18:11:49.800Z,101453.00
2022-10-04T18:17:00.756Z,101469.53
2022-10-04T18:22:19.528Z,101467.88
2022-10-04T18:27:25.209Z,101454.06
2022-10-04T18:32:26.844Z,101469.69
2022-10-04T18:37:33.731Z,101475.81
2022-10-04T18:42:36.999Z,101468.03
2022-10-04T18:47:40.236Z,101450.72
2022-10-04T18:52:57.992Z,101484.53
2022-10-04T18:59:12.260Z,101477.63
2022-10-04T19:04:21.222Z,101476.78
2022-10-04T19:09:30.728Z,101465.50
2022-10-04T19:14:54.533Z,101454.25
2022-10-04T19:20:10.005Z,101449.91
2022-10-04T19:25:36.377Z,101444.69
2022-10-04T19:31:05.286Z,101449.03
2022-10-04T19:36:11.793Z,101459.44
2022-10-04T19:41:38.869Z,101469.84
2022-10-04T19:46:58.846Z,101469.88
2022-10-04T19:52:22.443Z,101467.28
2022-10-04T19:57:38.088Z,101442.22
2022-10-04T20:02:45.972Z,101453.47
2022-10-04T20:21:07.811Z,101451.78
2022-10-04T20:26:11.827Z,101455.25
2022-10-04T20:31:25.396Z,101445.72
2022-10-04T20:36:29.764Z,101438.81
2022-10-04T20:41:53.681Z,101423.22
2022-10-04T20:46:55.377Z,101425.84
2022-10-04T20:51:56.981Z,101408.53
2022-10-04T20:56:58.371Z,101424.97
2022-10-04T21:02:00.910Z,101414.59
2022-10-04T21:07:07.249Z,101427.56
2022-10-04T21:12:33.841Z,101431.94
2022-10-04T21:17:37.139Z,101435.38
2022-10-04T21:22:39.381Z,101437.13
2022-10-04T21:27:43.590Z,101438.84
2022-10-04T21:32:45.607Z,101439.72
2022-10-04T21:37:46.967Z,101426.69
2022-10-04T21:42:48.194Z,101416.28
2022-10-04T21:47:49.513Z,101413.72
2022-10-04T21:52:50.822Z,101442.25
2022-10-04T21:57:52.164Z,101454.38
2022-10-04T22:02:53.456Z,101456.94
2022-10-04T22:07:54.825Z,101443.09
2022-10-04T22:12:57.040Z,101430.13
2022-10-04T22:17:58.478Z,101430.09
2022-10-04T22:23:00.927Z,101425.78
2022-10-04T22:28:13.254Z,101428.41
2022-10-04T22:33:41.860Z,101400.69
2022-10-04T22:38:48.947Z,101413.63
2022-10-04T22:43:50.336Z,101450.88
2022-10-04T22:48:51.620Z,101434.44
2022-10-04T22:53:52.937Z,101426.63
2022-10-04T22:58:54.408Z,101417.13
2022-10-04T23:03:57.719Z,101421.44
2022-10-04T23:09:00.429Z,101424.03
2022-10-04T23:14:01.750Z,101412.78
2022-10-04T23:19:21.408Z,101416.25
2022-10-04T23:24:23.234Z,101415.38
2022-10-04T23:29:30.082Z,101421.47
2022-10-04T23:34:36.617Z,101416.22
2022-10-04T23:39:38.051Z,101404.97
2022-10-04T23:44:39.282Z,101405.00
2022-10-04T23:49:41.131Z,101400.63
2022-10-04T23:54:42.573Z,101394.59
2022-10-04T23:59:43.855Z,101379.06
